I67

Cincinnati West Airport

Harrison, Ohio, USA
METAR KI67 190915Z AUTO 00000KT 1 1/4SM VV007 M01/M02 A3035 RMK AO1 VIS 1/2V5
Observed Flight Rules
Oct-19 @ 09:15 UTC (23 minutes ago) Instrument Flight Rules
Visibility Clouds
1 1/4 miles
  • Vertical visibility at 700' AGL
Temperatures Readings
Current -1°C / 30°F
Dewpoint -2°C / 28°F
Humidity 93%
Altimeter 30.35" Hg
Pressure 1028 hPa
Elevation 178
METAR KI67 190915Z AUTO 00000KT 1 1/4SM VV007 M01/M02 A3035 RMK AO1 VIS 1/2V5
Observed Flight Rules
Oct-19 @ 09:15 UTC
(23 minutes ago)
LIFR
Clouds
  • Vertical visibility at 700' AGL
Temperature Dewpoint
-1°C / 30°F -2°C / 28°F
Humidity Altimeter Pressure
93% 30.35" Hg 1028 hPa